Terminal Aerodrome Forecast
Issued by NWS Sterling, VA

Current Version | Previous Version | Graphics & Text | Print | Product List | Glossary On
Versions: 1 2 3 4 5 6 7 8 9 10 11 12 13 14 15 16 17 18 19 20 21 22
000
FTUS41 KLWX 172300
TAFIAD
TAF
KIAD 172333Z 1800/1906 31003KT P6SM FEW070 SCT250
     FM180500 VRB03KT P6SM BKN110
     FM181900 34004KT P6SM SCT030 BKN070
     FM190000 VRB03KT P6SM FEW040 SCT100=

USA.gov is the U.S. government's official web portal to all federal, state and local government web resources and services.